Weather History for Fairfield, IL

Change the Weather History Date:

Friday, March 21, 2014

  Actual Average (KMVN) Record (KMVN)
Temperature  
Mean Temperature 56 °F -  
Max Temperature 71 °F 53 °F 82 °F (2012)
Min Temperature 42 °F 34 °F 19 °F (2013)
Degree Days  
Heating Degree Days 8    
Growing Degree Days 6 (Base 50)    
Moisture  
Dew Point 36 °F    
Average Humidity 49    
Maximum Humidity 70    
Minimum Humidity 23    
Precipitation  
Precipitation 0.00 in - - ()
Sea Level Pressure  
Sea Level Pressure 29.92 in    
Wind  
Wind Speed 9 mph (SSW)    
Max Wind Speed 22 mph    
Max Gust Speed 28 mph    
Visibility 10 miles    
Events      
Averages and records for this station are not official NWS values.
T = Trace of Precipitation, MM = Missing Value Source: NWS Daily Summary

Daily Weather History Graph

Daily Weather History Graph

Search for Another Location

Airport:

Trip Planner

Search our weather history database for the weather conditions in past years. The results will help you decide how hot, cold, wet, or windy it might be!

Date:

Astronomy

Mar. 21, 2014 Rise Set
Actual Time 6:55 AM CDT 7:06 PM CDT
Civil Twilight 6:29 AM CDT 7:32 PM CDT
Nautical Twilight 5:58 AM CDT 8:03 PM CDT
Astronomical Twilight 5:26 AM CDT 8:35 PM CDT
Moon No Moon Rise 9:50 AM CDT (3/21)
Length of Visible Light 13h 03m
Length of Day
12h 10m
Waning Gibbous, 75% of the Moon is Illuminated
Mar 21
Waning Gibbous
Mar 23
Last Quarter
Mar 30
New
Apr 7
First Quarter
Apr 15
Full

Hourly Weather History & Observations

Time (CDT) Temp. Windchill Dew Point Humidity Pressure Visibility Wind Dir Wind Speed Gust Speed Precip Events Conditions
12:15 AM 46.4 °F 43.5 °F 35.6 °F 66% 30.00 in 10.0 mi South 5.8 mph - N/A   Clear
12:35 AM 46.4 °F 42.4 °F 35.6 °F 66% 30.00 in 10.0 mi South 8.1 mph - N/A   Clear
12:55 AM 46.4 °F 42.9 °F 33.8 °F 62% 30.00 in 10.0 mi South 6.9 mph - N/A   Clear
1:15 AM 44.6 °F 40.7 °F 33.8 °F 66% 29.99 in 10.0 mi South 6.9 mph - N/A   Clear
1:35 AM 44.6 °F 41.4 °F 33.8 °F 66% 30.00 in 10.0 mi South 5.8 mph - N/A   Clear
1:55 AM 44.6 °F 41.4 °F 33.8 °F 66% 30.00 in 10.0 mi South 5.8 mph - N/A   Clear
2:15 AM 44.6 °F 40.7 °F 33.8 °F 66% 29.99 in 10.0 mi South 6.9 mph - N/A   Clear
2:35 AM 44.6 °F 40.2 °F 33.8 °F 66% 29.99 in 10.0 mi South 8.1 mph - N/A   Clear
2:55 AM 44.6 °F 40.7 °F 33.8 °F 66% 29.98 in 10.0 mi South 6.9 mph - N/A   Clear
3:15 AM 44.6 °F 40.7 °F 33.8 °F 66% 29.97 in 10.0 mi South 6.9 mph - N/A   Clear
3:35 AM 44.6 °F 40.7 °F 33.8 °F 66% 29.97 in 10.0 mi South 6.9 mph - N/A   Clear
3:55 AM 44.6 °F 40.7 °F 33.8 °F 66% 29.97 in 10.0 mi South 6.9 mph - N/A   Clear
4:15 AM 44.6 °F 41.4 °F 33.8 °F 66% 29.97 in 10.0 mi South 5.8 mph - N/A   Clear
4:35 AM 42.8 °F 40.1 °F 33.8 °F 70% 29.96 in 10.0 mi South 4.6 mph - N/A   Clear
4:55 AM 44.6 °F 42.2 °F 33.8 °F 66% 29.96 in 10.0 mi South 4.6 mph - N/A   Clear
5:15 AM 42.8 °F 39.3 °F 33.8 °F 70% 29.96 in 10.0 mi South 5.8 mph - N/A   Clear
5:35 AM 44.6 °F 41.4 °F 33.8 °F 66% 29.96 in 10.0 mi South 5.8 mph - N/A   Clear
5:55 AM 42.8 °F 39.3 °F 33.8 °F 70% 29.96 in 10.0 mi South 5.8 mph - N/A   Clear
6:15 AM 42.8 °F 40.1 °F 33.8 °F 70% 29.96 in 10.0 mi South 4.6 mph - N/A   Clear
6:35 AM 42.8 °F 39.3 °F 33.8 °F 70% 29.96 in 10.0 mi South 5.8 mph - N/A   Clear
6:55 AM 42.8 °F 39.3 °F 33.8 °F 70% 29.96 in 10.0 mi South 5.8 mph - N/A   Clear
7:15 AM 42.8 °F 40.1 °F 33.8 °F 70% 29.96 in 10.0 mi South 4.6 mph - N/A   Clear
7:35 AM 44.6 °F 42.2 °F 33.8 °F 66% 29.96 in 5.0 mi South 4.6 mph - N/A   Haze
7:55 AM 46.4 °F 42.9 °F 35.6 °F 66% 29.96 in 10.0 mi South 6.9 mph - N/A   Clear
8:15 AM 46.4 °F 42.4 °F 35.6 °F 66% 29.96 in 10.0 mi South 8.1 mph - N/A   Clear
8:35 AM 48.2 °F - 35.6 °F 62% 29.96 in 10.0 mi South 6.9 mph - N/A   Clear
8:55 AM 51.8 °F - 37.4 °F 58% 29.96 in 10.0 mi South 8.1 mph - N/A   Clear
9:15 AM 51.8 °F - 37.4 °F 58% 29.96 in 10.0 mi South 5.8 mph - N/A   Clear
9:35 AM 53.6 °F - 37.4 °F 54% 29.96 in 10.0 mi SSW 8.1 mph - N/A   Clear
9:55 AM 55.4 °F - 37.4 °F 51% 29.97 in 10.0 mi SSW 6.9 mph - N/A   Clear
10:15 AM 59.0 °F - 37.4 °F 45% 29.96 in 10.0 mi SW 10.4 mph - N/A   Clear
10:35 AM 62.6 °F - 33.8 °F 34% 29.96 in 10.0 mi WSW 13.8 mph - N/A   Clear
10:55 AM 62.6 °F - 33.8 °F 34% 29.96 in 10.0 mi SW 16.1 mph - N/A   Clear
11:15 AM 64.4 °F - 33.8 °F 32% 29.95 in 10.0 mi SSW 12.7 mph 17.3 mph N/A   Clear
11:35 AM 64.4 °F - 33.8 °F 32% 29.95 in 10.0 mi SSW 13.8 mph 17.3 mph N/A   Clear
11:55 AM 66.2 °F - 33.8 °F 30% 29.94 in 10.0 mi SSW 16.1 mph 19.6 mph N/A   Clear
12:15 PM 66.2 °F - 33.8 °F 30% 29.94 in 10.0 mi SSW 12.7 mph 19.6 mph N/A   Clear
12:35 PM 68.0 °F - 33.8 °F 28% 29.93 in 10.0 mi SW 12.7 mph - N/A   Clear
12:55 PM 68.0 °F - 33.8 °F 28% 29.93 in 10.0 mi South 17.3 mph - N/A   Clear
1:15 PM 69.8 °F - 32.0 °F 25% 29.91 in 10.0 mi SW 16.1 mph 21.9 mph N/A   Clear
1:35 PM 69.8 °F - 33.8 °F 27% 29.90 in 10.0 mi SSW 15.0 mph 23.0 mph N/A   Clear
1:55 PM 69.8 °F - 33.8 °F 27% 29.89 in 10.0 mi SSW 18.4 mph - N/A   Clear
2:15 PM 69.8 °F - 32.0 °F 25% 29.88 in 10.0 mi SSW 17.3 mph 23.0 mph N/A   Clear
2:35 PM 69.8 °F - 32.0 °F 25% 29.87 in 10.0 mi SSW 17.3 mph 24.2 mph N/A   Clear
2:55 PM 71.6 °F - 32.0 °F 23% 29.85 in 10.0 mi SW 15.0 mph 20.7 mph N/A   Clear
3:15 PM 71.6 °F - 33.8 °F 25% 29.85 in 10.0 mi SSW 16.1 mph 26.5 mph N/A   Clear
3:35 PM 71.6 °F - 33.8 °F 25% 29.84 in 10.0 mi South 21.9 mph 26.5 mph N/A   Clear
3:55 PM 69.8 °F - 35.6 °F 28% 29.84 in 10.0 mi South 20.7 mph 27.6 mph N/A   Clear
4:15 PM 69.8 °F - 33.8 °F 27% 29.83 in 10.0 mi SSW 18.4 mph 25.3 mph N/A   Clear
4:35 PM 69.8 °F - 33.8 °F 27% 29.83 in 10.0 mi SW 17.3 mph 26.5 mph N/A   Clear
4:55 PM 69.8 °F - 33.8 °F 27% 29.83 in 10.0 mi SSW 16.1 mph 24.2 mph N/A   Clear
5:15 PM 68.0 °F - 33.8 °F 28% 29.83 in 10.0 mi SSW 16.1 mph 25.3 mph N/A   Clear
5:35 PM 66.2 °F - 33.8 °F 30% 29.83 in 10.0 mi SSW 13.8 mph 21.9 mph N/A   Clear
5:55 PM 66.2 °F - 35.6 °F 32% 29.84 in 10.0 mi SSW 15.0 mph 18.4 mph N/A   Clear
6:15 PM 64.4 °F - 35.6 °F 34% 29.83 in 10.0 mi SSW 13.8 mph 18.4 mph N/A   Clear
6:35 PM 64.4 °F - 35.6 °F 34% 29.84 in 10.0 mi SSW 13.8 mph 17.3 mph N/A   Clear
6:55 PM 64.4 °F - 35.6 °F 34% 29.85 in 10.0 mi SW 12.7 mph 23.0 mph N/A   Clear
7:15 PM 62.6 °F - 37.4 °F 39% 29.84 in 10.0 mi SSW 12.7 mph 17.3 mph N/A   Clear
7:35 PM 60.8 °F - 39.2 °F 45% 29.83 in 10.0 mi South 11.5 mph 16.1 mph N/A   Clear
7:55 PM 60.8 °F - 39.2 °F 45% 29.83 in 10.0 mi SSW 11.5 mph - N/A   Clear
8:15 PM 60.8 °F - 39.2 °F 45% 29.82 in 10.0 mi South 12.7 mph - N/A   Clear
8:35 PM 60.8 °F - 41.0 °F 48% 29.83 in 10.0 mi SSW 11.5 mph - N/A   Clear
8:55 PM 60.8 °F - 41.0 °F 48% 29.83 in 10.0 mi SSW 11.5 mph - N/A   Clear
9:15 PM 59.0 °F - 41.0 °F 51% 29.84 in 10.0 mi SSW 9.2 mph - N/A   Clear
9:35 PM 60.8 °F - 41.0 °F 48% 29.84 in 10.0 mi SSW 10.4 mph 16.1 mph N/A   Clear
9:55 PM 59.0 °F - 42.8 °F 55% 29.85 in 10.0 mi SW 8.1 mph - N/A   Clear
10:15 PM 59.0 °F - 42.8 °F 55% 29.88 in 10.0 mi West 8.1 mph - N/A   Clear
10:35 PM 57.2 °F - 42.8 °F 59% 29.90 in 10.0 mi West 6.9 mph - N/A   Clear
10:55 PM 57.2 °F - 42.8 °F 59% 29.90 in 10.0 mi WSW 6.9 mph - N/A   Clear
11:15 PM 57.2 °F - 42.8 °F 59% 29.90 in 10.0 mi West 4.6 mph - N/A   Scattered Clouds
11:35 PM 59.0 °F - 39.2 °F 48% 29.92 in 10.0 mi NW 9.2 mph - N/A   Clear
11:55 PM 57.2 °F - 39.2 °F 51% 29.93 in 10.0 mi NNW 10.4 mph 16.1 mph N/A   Clear